createdAt,value
2022-10-02T00:03:26.133Z,100540.00
2022-10-02T00:08:33.584Z,100550.63
2022-10-02T00:13:44.429Z,100544.34
2022-10-02T00:18:48.310Z,100544.34
2022-10-02T00:23:54.225Z,100559.00
2022-10-02T00:29:04.511Z,100555.66
2022-10-02T00:34:39.017Z,100554.66
2022-10-02T00:39:46.515Z,100565.28
2022-10-02T00:44:59.370Z,100563.88
2022-10-02T00:50:36.209Z,100532.13
2022-10-02T00:55:46.985Z,100556.03
2022-10-02T01:01:02.609Z,100558.88
2022-10-02T01:06:04.595Z,100567.94
2022-10-02T01:11:07.298Z,100566.97
2022-10-02T01:16:12.646Z,100568.91
2022-10-02T01:21:19.599Z,100561.34
2022-10-02T01:26:21.009Z,100557.13
2022-10-02T01:31:22.584Z,100560.78
2022-10-02T01:36:25.635Z,100569.94
2022-10-02T01:41:27.097Z,100567.53
2022-10-02T01:46:35.909Z,100572.41
2022-10-02T01:51:46.513Z,100588.50
2022-10-02T01:57:02.109Z,100580.81
2022-10-02T02:02:15.261Z,100590.47
2022-10-02T02:07:32.003Z,100600.66
2022-10-02T02:12:43.415Z,100585.47
2022-10-02T02:18:17.862Z,100575.22
2022-10-02T02:23:25.696Z,100577.44
2022-10-02T02:28:29.571Z,100581.47
2022-10-02T02:33:42.890Z,100578.22
2022-10-02T02:38:48.347Z,100572.38
2022-10-02T02:44:00.112Z,100568.22
2022-10-02T02:49:08.271Z,100578.19
2022-10-02T02:54:19.642Z,100570.88
2022-10-02T02:59:23.603Z,100566.19
2022-10-02T03:04:25.126Z,100575.22
2022-10-02T03:09:29.658Z,100569.16
2022-10-02T03:14:49.612Z,100567.00
2022-10-02T03:19:51.001Z,100562.63
2022-10-02T03:25:15.635Z,100562.63
2022-10-02T03:30:17.925Z,100579.53
2022-10-02T03:35:21.701Z,100577.28
2022-10-02T03:40:24.332Z,100572.31
2022-10-02T03:45:50.036Z,100581.38
2022-10-02T03:50:49.561Z,100573.84
2022-10-02T03:55:57.681Z,100569.34
2022-10-02T04:01:05.818Z,100578.72
2022-10-02T04:06:10.038Z,100582.25
2022-10-02T04:11:13.578Z,100565.97
2022-10-02T04:16:31.346Z,100578.19
2022-10-02T04:21:43.790Z,100566.19
2022-10-02T04:27:06.046Z,100573.06
2022-10-02T04:32:14.510Z,100582.22
2022-10-02T04:37:30.870Z,100583.88
2022-10-02T04:42:44.672Z,100574.13
2022-10-02T04:48:19.967Z,100579.84
2022-10-02T04:53:56.270Z,100587.81
2022-10-02T04:59:09.778Z,100577.44
2022-10-02T05:04:23.418Z,100576.41
2022-10-02T05:09:48.962Z,100581.56
2022-10-02T05:15:03.766Z,100582.34
2022-10-02T05:20:16.200Z,100595.19
2022-10-02T05:25:44.242Z,100590.84
2022-10-02T05:30:55.871Z,100604.22
2022-10-02T05:36:42.009Z,100599.19
2022-10-02T05:42:01.672Z,100596.53
2022-10-02T05:47:19.393Z,100593.13
2022-10-02T05:52:25.937Z,100594.31
2022-10-02T05:57:33.093Z,100591.84
2022-10-02T06:03:15.785Z,100593.34
2022-10-02T06:08:24.797Z,100584.78
2022-10-02T06:13:34.430Z,100597.66
2022-10-02T06:18:37.561Z,100602.16
2022-10-02T06:23:53.066Z,100617.41
2022-10-02T06:29:09.723Z,100611.75
2022-10-02T06:34:13.046Z,100614.13
2022-10-02T06:39:26.729Z,100622.25
2022-10-02T06:44:44.760Z,100628.94
2022-10-02T06:50:16.765Z,100634.13
2022-10-02T06:55:21.493Z,100628.94
2022-10-02T07:00:23.014Z,100629.25
2022-10-02T07:06:03.597Z,100624.19
2022-10-02T07:11:14.326Z,100635.25
2022-10-02T07:16:26.574Z,100637.47
2022-10-02T07:21:51.019Z,100642.03
2022-10-02T07:27:15.752Z,100648.34
2022-10-02T07:32:35.985Z,100647.50
2022-10-02T07:38:11.586Z,100638.00
2022-10-02T07:43:44.910Z,100652.63
2022-10-02T07:49:02.800Z,100652.97
2022-10-02T07:54:21.559Z,100660.50
2022-10-02T07:59:23.350Z,100664.00
2022-10-02T08:04:37.058Z,100663.16
2022-10-02T08:09:48.791Z,100655.47
2022-10-02T08:14:53.915Z,100653.34
2022-10-02T08:20:01.562Z,100663.84
2022-10-02T08:25:26.607Z,100676.13
2022-10-02T08:30:28.385Z,100682.84
2022-10-02T08:35:47.807Z,100683.69
2022-10-02T08:41:37.407Z,100690.78
2022-10-02T08:47:06.584Z,100684.25
2022-10-02T08:52:38.133Z,100676.53
2022-10-02T08:58:03.454Z,100672.31
2022-10-02T09:03:23.166Z,100670.09
2022-10-02T09:09:01.645Z,100666.88
2022-10-02T09:14:23.349Z,100680.84
2022-10-02T09:19:51.553Z,100674.44
2022-10-02T09:25:11.490Z,100681.44
2022-10-02T09:30:18.695Z,100668.97
2022-10-02T09:35:57.641Z,100665.63
2022-10-02T09:41:23.904Z,100653.25
2022-10-02T09:47:10.701Z,100638.19
2022-10-02T09:52:29.957Z,100646.56
2022-10-02T09:58:00.877Z,100654.53
2022-10-02T10:03:23.242Z,100654.09
2022-10-02T10:08:49.685Z,100671.28
2022-10-02T10:14:12.941Z,100673.66
2022-10-02T10:19:42.766Z,100675.53
2022-10-02T10:25:12.480Z,100673.03
2022-10-02T10:30:23.735Z,100679.75
2022-10-02T10:35:46.891Z,100676.78
2022-10-02T10:40:54.471Z,100682.13
2022-10-02T10:46:42.338Z,100692.75
2022-10-02T10:52:08.446Z,100697.25
2022-10-02T10:57:16.091Z,100689.25
2022-10-02T11:03:02.859Z,100700.63
2022-10-02T11:08:16.619Z,100708.41
2022-10-02T11:13:42.818Z,100718.22
2022-10-02T11:19:09.306Z,100716.81
2022-10-02T11:24:39.198Z,100720.75
2022-10-02T11:30:26.061Z,100714.88
2022-10-02T11:35:43.031Z,100716.97
2022-10-02T11:41:25.717Z,100712.75
2022-10-02T11:46:33.273Z,100712.63
2022-10-02T11:51:47.233Z,100718.94
2022-10-02T11:57:13.453Z,100717.41
2022-10-02T12:02:28.635Z,100716.66
2022-10-02T12:08:00.158Z,100713.16
2022-10-02T12:13:13.539Z,100709.91
2022-10-02T12:18:21.939Z,100698.25
2022-10-02T12:23:35.566Z,100697.34
2022-10-02T12:29:06.809Z,100703.09
2022-10-02T12:34:44.994Z,100709.22
2022-10-02T12:40:16.143Z,100714.22
2022-10-02T12:45:36.231Z,100715.44
2022-10-02T12:51:05.522Z,100714.88
2022-10-02T12:56:47.115Z,100726.06
2022-10-02T13:02:12.941Z,100729.72
2022-10-02T13:07:58.861Z,100718.38
2022-10-02T13:13:24.265Z,100723.28
2022-10-02T13:18:51.951Z,100723.50
2022-10-02T13:24:08.360Z,100724.09
2022-10-02T13:29:25.033Z,100724.91
2022-10-02T13:34:58.763Z,100730.69
2022-10-02T13:40:17.736Z,100734.97
2022-10-02T13:45:38.047Z,100727.84
2022-10-02T13:51:06.315Z,100732.34
2022-10-02T13:57:02.944Z,100729.00
2022-10-02T14:02:17.611Z,100720.41
2022-10-02T14:07:46.907Z,100728.25
2022-10-02T14:13:00.471Z,100728.81
2022-10-02T14:18:07.972Z,100744.53
2022-10-02T14:23:46.873Z,100751.38
2022-10-02T14:29:16.389Z,100745.50
2022-10-02T14:34:39.498Z,100763.44
2022-10-02T14:39:42.210Z,100764.53
2022-10-02T14:44:55.653Z,100767.91
2022-10-02T14:50:03.408Z,100763.84
2022-10-02T14:55:32.656Z,100768.00
2022-10-02T15:00:58.705Z,100764.13
2022-10-02T15:06:18.232Z,100766.50
2022-10-02T15:11:32.180Z,100763.00
2022-10-02T15:16:45.677Z,100762.31
2022-10-02T15:22:07.218Z,100758.81
2022-10-02T15:27:46.606Z,100756.97
2022-10-02T15:33:32.050Z,100773.09
2022-10-02T15:38:36.314Z,100777.28
2022-10-02T15:43:57.934Z,100781.06
2022-10-02T15:49:13.791Z,100785.25
2022-10-02T15:54:24.625Z,100786.63
2022-10-02T15:59:50.263Z,100795.44
2022-10-02T16:05:13.305Z,100791.94
2022-10-02T16:10:26.424Z,100806.25
2022-10-02T16:15:49.630Z,100820.06
2022-10-02T16:21:12.876Z,100817.56
2022-10-02T16:26:32.759Z,100815.88
2022-10-02T16:31:54.676Z,100815.88
2022-10-02T16:37:06.656Z,100827.13
2022-10-02T16:42:36.019Z,100830.56
2022-10-02T16:48:09.473Z,100826.66
2022-10-02T16:53:25.138Z,100839.13
2022-10-02T16:58:39.574Z,100844.91
2022-10-02T17:04:05.307Z,100864.63
2022-10-02T17:09:28.510Z,100870.81
2022-10-02T17:14:53.838Z,100878.50
2022-10-02T17:20:01.137Z,100881.03
2022-10-02T17:25:31.706Z,100893.50
2022-10-02T17:31:17.093Z,100909.47
2022-10-02T17:36:41.853Z,100924.41
2022-10-02T17:42:18.591Z,100929.31
2022-10-02T17:47:53.378Z,100940.91
2022-10-02T17:53:12.767Z,100962.59
2022-10-02T17:58:23.181Z,100968.44
2022-10-02T18:04:00.129Z,100977.38
2022-10-02T18:09:39.221Z,100997.25
2022-10-02T18:14:59.653Z,101004.50
2022-10-02T18:20:47.455Z,101017.78
2022-10-02T18:26:02.603Z,101022.66
2022-10-02T18:31:56.700Z,101035.81
2022-10-02T18:37:04.545Z,101042.50
2022-10-02T18:42:40.165Z,101043.03
2022-10-02T18:48:01.390Z,101063.13
2022-10-02T18:53:27.571Z,101063.50
2022-10-02T18:58:36.358Z,101068.22
2022-10-02T19:03:43.549Z,101067.94
2022-10-02T19:09:11.841Z,101081.88
2022-10-02T19:14:36.577Z,101086.25
2022-10-02T19:19:38.494Z,101100.25
2022-10-02T19:24:44.035Z,101105.09
2022-10-02T19:29:51.067Z,101101.63
2022-10-02T19:35:10.751Z,101109.00
2022-10-02T19:40:35.142Z,101117.53
2022-10-02T19:45:41.137Z,101129.22
2022-10-02T19:50:46.460Z,101136.00
2022-10-02T19:55:55.364Z,101132.59
2022-10-02T20:00:57.762Z,101141.25
2022-10-02T20:06:18.357Z,101152.47
2022-10-02T20:11:35.203Z,101155.50
2022-10-02T20:16:37.059Z,101155.13
2022-10-02T20:21:41.971Z,101163.94
2022-10-02T20:26:46.718Z,101170.56
2022-10-02T20:32:01.076Z,101173.59
2022-10-02T20:37:07.803Z,101186.75
2022-10-02T20:42:12.094Z,101190.00
2022-10-02T20:47:42.485Z,101198.00
2022-10-02T20:52:43.847Z,101202.63
2022-10-02T20:58:03.541Z,101204.38
2022-10-02T21:03:25.809Z,101215.47
2022-10-02T21:08:39.335Z,101222.41
2022-10-02T21:14:04.742Z,101216.72
2022-10-02T21:19:12.045Z,101231.38
2022-10-02T21:24:43.818Z,101229.41
2022-10-02T21:30:18.489Z,101240.38
2022-10-02T21:35:43.277Z,101248.44
2022-10-02T21:41:28.797Z,101241.91
2022-10-02T21:46:54.940Z,101257.91
2022-10-02T21:52:05.304Z,101268.47
2022-10-02T21:57:15.382Z,101276.84
2022-10-02T22:02:41.365Z,101284.78
2022-10-02T22:07:58.769Z,101293.47
2022-10-02T22:13:12.408Z,101287.22
2022-10-02T22:18:49.930Z,101290.34
2022-10-02T22:24:21.901Z,101299.88
2022-10-02T22:29:45.736Z,101308.56
2022-10-02T22:34:59.320Z,101311.72
2022-10-02T22:40:51.785Z,101310.75
2022-10-02T22:46:08.892Z,101314.84
2022-10-02T22:51:29.853Z,101333.53
2022-10-02T22:56:40.585Z,101341.97
2022-10-02T23:01:51.169Z,101339.78
2022-10-02T23:07:03.666Z,101345.94
2022-10-02T23:12:11.758Z,101348.47
2022-10-02T23:17:39.570Z,101344.63
2022-10-02T23:22:58.644Z,101357.25
2022-10-02T23:28:15.094Z,101361.09
2022-10-02T23:33:36.912Z,101361.09
2022-10-02T23:38:50.623Z,101375.06
2022-10-02T23:44:13.456Z,101377.94
2022-10-02T23:49:25.190Z,101381.97
2022-10-02T23:54:43.478Z,101377.94
